createdAt,value
2023-03-01T00:02:01.043Z,10.60
2023-03-01T00:07:03.550Z,8.20
2023-03-01T00:23:58.157Z,10.50
2023-03-01T00:29:00.986Z,9.20
2023-03-01T00:34:05.862Z,9.20
2023-03-01T00:39:13.122Z,6.20
2023-03-01T00:44:15.658Z,7.50
2023-03-01T00:49:18.183Z,9.00
2023-03-01T00:54:20.650Z,9.10
2023-03-01T00:59:23.141Z,10.40
2023-03-01T01:04:25.653Z,6.30
2023-03-01T01:09:28.134Z,8.70
2023-03-01T01:14:30.821Z,7.10
2023-03-01T01:19:35.699Z,9.30
2023-03-01T01:24:38.278Z,10.50
2023-03-01T01:29:40.944Z,10.60
2023-03-01T01:34:43.564Z,8.20
2023-03-01T01:39:46.060Z,9.60
2023-03-01T01:44:49.048Z,7.90
2023-03-01T01:49:55.794Z,8.20
2023-03-01T01:55:06.353Z,8.30
2023-03-01T02:00:13.708Z,10.30
2023-03-01T02:05:25.820Z,9.00
2023-03-01T02:10:29.916Z,9.40
2023-03-01T02:15:34.703Z,9.20
2023-03-01T02:21:04.877Z,7.20
2023-03-01T02:26:14.785Z,16.00
2023-03-01T02:31:22.649Z,12.20
2023-03-01T02:36:35.157Z,10.00
2023-03-01T02:41:39.348Z,10.90
2023-03-01T02:46:47.649Z,8.50
2023-03-01T02:51:55.943Z,7.80
2023-03-01T02:56:58.658Z,10.90
2023-03-01T03:02:01.939Z,10.70
2023-03-01T03:07:04.432Z,11.10
2023-03-01T03:12:07.007Z,10.70
2023-03-01T03:17:09.622Z,10.70
2023-03-01T03:22:13.352Z,12.50
2023-03-01T03:27:15.854Z,10.10
2023-03-01T03:32:18.385Z,12.80
2023-03-01T03:37:23.826Z,10.60
2023-03-01T03:42:26.319Z,13.80
2023-03-01T03:47:28.787Z,13.10
2023-03-01T03:52:31.277Z,11.70
2023-03-01T03:57:33.777Z,12.40
2023-03-01T04:02:36.342Z,10.30
2023-03-01T04:07:39.714Z,12.90
2023-03-01T04:12:44.053Z,13.10
2023-03-01T04:17:47.570Z,12.00
2023-03-01T04:22:50.042Z,12.40
2023-03-01T04:27:52.951Z,10.60
2023-03-01T04:32:55.610Z,13.70
2023-03-01T04:37:58.822Z,12.00
2023-03-01T04:43:02.231Z,11.60
2023-03-01T04:48:05.141Z,9.20
2023-03-01T04:53:07.669Z,15.80
2023-03-01T04:58:10.427Z,14.70
2023-03-01T05:03:13.077Z,13.80
2023-03-01T05:08:18.305Z,9.80
2023-03-01T05:13:21.942Z,13.60
2023-03-01T05:18:27.047Z,12.10
2023-03-01T05:23:29.616Z,15.50
2023-03-01T05:35:33.991Z,11.60
2023-03-01T05:40:36.641Z,11.70
2023-03-01T05:45:39.587Z,12.50
2023-03-01T05:50:44.387Z,9.20
2023-03-01T05:55:48.279Z,12.30
2023-03-01T06:00:52.043Z,10.90
2023-03-01T06:05:58.459Z,10.30
2023-03-01T06:11:01.111Z,10.60
2023-03-01T06:16:07.331Z,9.70
2023-03-01T06:33:25.212Z,15.20
2023-03-01T06:38:27.749Z,17.70
2023-03-01T06:43:30.416Z,27.00
2023-03-01T06:48:33.218Z,52.40
2023-03-01T06:53:36.253Z,36.50
2023-03-01T06:58:38.819Z,12.50
2023-03-01T07:03:41.337Z,30.50
2023-03-01T07:08:44.126Z,12.60
2023-03-01T07:13:46.628Z,11.90
2023-03-01T07:18:49.169Z,15.50
2023-03-01T07:30:45.843Z,9.80
2023-03-01T07:35:48.389Z,8.70
2023-03-01T07:40:51.034Z,9.80
2023-03-01T07:45:53.569Z,13.90
2023-03-01T07:50:59.688Z,13.30
2023-03-01T08:01:11.045Z,10.10
2023-03-01T08:06:15.805Z,13.00
2023-03-01T08:11:18.633Z,12.10
2023-03-01T08:16:21.189Z,11.00
2023-03-01T08:21:23.724Z,11.20
2023-03-01T08:26:26.186Z,11.50
2023-03-01T08:31:36.501Z,7.30
2023-03-01T08:36:42.406Z,11.80
2023-03-01T08:41:47.132Z,11.40
2023-03-01T08:46:52.267Z,9.30
2023-03-01T08:51:55.287Z,9.30
2023-03-01T08:56:59.849Z,10.90
2023-03-01T09:02:02.423Z,11.20
2023-03-01T09:07:05.365Z,9.00
2023-03-01T09:12:07.884Z,10.40
2023-03-01T09:17:10.588Z,9.80
2023-03-01T09:22:13.129Z,12.00
2023-03-01T09:27:15.702Z,13.10
2023-03-01T09:32:18.371Z,13.20
2023-03-01T09:37:21.546Z,12.10
2023-03-01T09:42:24.598Z,11.80
2023-03-01T09:47:33.399Z,12.20
2023-03-01T09:52:39.914Z,13.00
2023-03-01T09:57:51.415Z,13.90
2023-03-01T10:03:01.038Z,13.60
2023-03-01T10:08:03.548Z,13.90
2023-03-01T10:13:15.722Z,14.10
2023-03-01T10:18:22.177Z,12.20
2023-03-01T10:23:26.169Z,12.10
2023-03-01T10:28:51.806Z,12.50
2023-03-01T10:33:56.343Z,11.00
2023-03-01T10:38:58.989Z,14.30
2023-03-01T10:44:01.704Z,16.50
2023-03-01T10:49:07.124Z,13.40
2023-03-01T10:54:15.447Z,15.70
2023-03-01T10:59:26.141Z,15.40
2023-03-01T11:04:28.735Z,13.80
2023-03-01T11:09:39.279Z,15.20
2023-03-01T11:14:57.047Z,14.80
2023-03-01T11:20:09.065Z,12.00
2023-03-01T11:25:15.313Z,14.20
2023-03-01T11:30:31.768Z,12.30
2023-03-01T11:35:38.973Z,13.30
2023-03-01T11:40:48.595Z,12.00
2023-03-01T11:45:51.095Z,12.60
2023-03-01T11:50:57.603Z,12.30
2023-03-01T11:56:05.961Z,9.30
2023-03-01T12:01:09.495Z,12.00
2023-03-01T12:06:15.881Z,8.20
2023-03-01T12:11:23.861Z,12.40
2023-03-01T12:16:38.804Z,10.60
2023-03-01T12:21:50.210Z,11.80
2023-03-01T12:27:01.160Z,8.20
2023-03-01T12:32:12.105Z,8.40
2023-03-01T12:37:26.086Z,7.40
2023-03-01T12:42:36.105Z,9.40
2023-03-01T12:47:50.669Z,7.40
2023-03-01T12:52:58.446Z,5.90
2023-03-01T12:58:08.530Z,6.40
2023-03-01T13:03:16.897Z,8.10
2023-03-01T13:08:25.000Z,7.60
2023-03-01T13:13:29.396Z,6.30
2023-03-01T13:18:33.346Z,7.80
2023-03-01T13:23:39.192Z,7.20
2023-03-01T13:28:45.693Z,8.60
2023-03-01T13:33:52.632Z,7.50
2023-03-01T13:38:55.907Z,7.80
2023-03-01T13:43:58.699Z,6.50
2023-03-01T13:49:01.464Z,7.10
2023-03-01T13:54:04.853Z,8.20
2023-03-01T13:59:20.993Z,8.20
2023-03-01T14:09:34.300Z,7.90
2023-03-01T14:14:53.012Z,7.40
2023-03-01T14:19:59.394Z,7.40
2023-03-01T14:25:17.382Z,8.70
2023-03-01T14:30:23.856Z,8.30
2023-03-01T14:35:30.455Z,7.40
2023-03-01T14:40:36.076Z,7.80
2023-03-01T14:45:38.738Z,8.00
2023-03-01T14:50:44.244Z,8.70
2023-03-01T14:55:51.491Z,8.70
2023-03-01T15:01:01.524Z,8.90
2023-03-01T15:06:06.167Z,8.40
2023-03-01T15:11:14.855Z,10.80
2023-03-01T15:16:24.036Z,12.00
2023-03-01T15:21:35.255Z,8.60
2023-03-01T15:26:47.849Z,9.80
2023-03-01T15:32:27.058Z,7.90
2023-03-01T15:37:46.173Z,8.50
2023-03-01T15:42:48.759Z,8.80
2023-03-01T15:48:05.220Z,8.80
2023-03-01T15:53:12.923Z,10.90
2023-03-01T15:58:26.790Z,10.80
2023-03-01T16:03:30.752Z,13.60
2023-03-01T16:08:33.461Z,11.30
2023-03-01T16:13:36.623Z,13.00
2023-03-01T16:18:40.096Z,12.80
2023-03-01T16:23:44.324Z,10.20
2023-03-01T16:28:47.043Z,9.90
2023-03-01T16:33:53.517Z,11.60
2023-03-01T16:38:59.807Z,12.10
2023-03-01T16:44:02.343Z,13.10
2023-03-01T16:49:04.884Z,16.50
2023-03-01T16:54:07.436Z,17.80
2023-03-01T16:59:10.691Z,18.60
2023-03-01T17:04:13.920Z,17.80
2023-03-01T17:09:18.064Z,15.50
2023-03-01T17:14:21.242Z,15.70
2023-03-01T17:19:23.894Z,14.40
2023-03-01T17:24:27.409Z,15.40
2023-03-01T17:29:30.750Z,15.20
2023-03-01T17:34:34.078Z,14.30
2023-03-01T17:39:36.712Z,13.60
2023-03-01T17:44:39.302Z,16.80
2023-03-01T17:49:41.813Z,16.80
2023-03-01T17:54:44.323Z,16.50
2023-03-01T17:59:46.868Z,17.60
2023-03-01T18:04:49.644Z,23.00
2023-03-01T18:09:52.358Z,22.00
2023-03-01T18:14:55.311Z,17.70
2023-03-01T18:19:58.885Z,17.60
2023-03-01T18:25:01.490Z,22.90
2023-03-01T18:30:10.614Z,27.70
2023-03-01T18:35:13.155Z,28.00
2023-03-01T18:40:16.012Z,26.30
2023-03-01T18:45:19.301Z,29.40
2023-03-01T18:50:21.862Z,28.00
2023-03-01T18:55:24.569Z,28.00
2023-03-01T19:00:27.219Z,26.20
2023-03-01T19:05:30.812Z,29.10
2023-03-01T19:10:33.496Z,24.30
2023-03-01T19:15:36.119Z,27.80
2023-03-01T19:20:39.622Z,24.40
2023-03-01T19:25:43.043Z,25.80
2023-03-01T19:30:45.891Z,23.50
2023-03-01T19:35:49.097Z,24.10
2023-03-01T19:40:51.994Z,24.00
2023-03-01T19:45:55.652Z,25.40
2023-03-01T19:50:58.579Z,24.30
2023-03-01T19:56:02.597Z,24.40
2023-03-01T20:01:05.555Z,23.30
2023-03-01T20:06:11.282Z,23.90
2023-03-01T20:11:15.817Z,24.90
2023-03-01T20:16:19.961Z,24.30
2023-03-01T20:21:24.842Z,22.80
2023-03-01T20:26:28.467Z,28.40
2023-03-01T20:31:31.375Z,30.80
2023-03-01T20:36:35.092Z,30.10
2023-03-01T20:41:39.236Z,30.50
2023-03-01T20:46:42.030Z,28.00
2023-03-01T20:51:44.700Z,30.20
2023-03-01T20:56:47.630Z,25.30
2023-03-01T21:01:50.583Z,22.70
2023-03-01T21:06:53.106Z,29.40
2023-03-01T21:11:55.742Z,27.80
2023-03-01T21:16:58.233Z,26.10
2023-03-01T21:22:00.761Z,23.20
2023-03-01T21:27:06.496Z,19.20
2023-03-01T21:32:10.514Z,25.80
2023-03-01T21:37:13.174Z,30.40
2023-03-01T21:42:15.671Z,28.20
2023-03-01T21:47:18.187Z,31.70
2023-03-01T21:52:20.758Z,27.20
2023-03-01T21:57:23.313Z,22.70
2023-03-01T22:02:25.797Z,22.20
2023-03-01T22:07:30.346Z,25.60
2023-03-01T22:12:33.232Z,18.30
2023-03-01T22:17:35.868Z,23.00
2023-03-01T22:22:38.443Z,22.40
2023-03-01T22:27:41.062Z,23.00
2023-03-01T22:32:43.701Z,21.20
2023-03-01T22:37:47.423Z,17.40
2023-03-01T22:42:50.043Z,18.80
2023-03-01T22:47:52.610Z,13.80
2023-03-01T22:52:56.250Z,14.10
2023-03-01T22:57:58.782Z,12.20
2023-03-01T23:03:01.832Z,9.60
2023-03-01T23:08:04.790Z,8.20
2023-03-01T23:13:07.316Z,7.70
2023-03-01T23:18:09.796Z,4.60
2023-03-01T23:23:12.267Z,3.40
2023-03-01T23:28:14.845Z,2.80
2023-03-01T23:33:17.322Z,2.60
2023-03-01T23:38:20.658Z,3.10
2023-03-01T23:43:23.279Z,2.90
2023-03-01T23:48:25.762Z,1.90
2023-03-01T23:53:28.333Z,2.50
2023-03-01T23:58:31.005Z,2.00
